Time;durP1;ratioP1;P1;durP2;ratioP2;P2;SDS_P1;SDS_P2;PMS_P1;PMS_P2;Temp;Humidity;BMP_temperature;BMP_pressure;BME280_temperature;BME280_humidity;BME280_pressure;Samples;Min_cycle;Max_cycle;Signal;HPM_P1;HPM_P2
2021/12/20 00:01:01;;;;;;;12.18;6.25;;;6.30;99.90;;;;;;4987092;28;20057;-73
2021/12/20 00:03:28;;;;;;;10.93;6.18;;;6.30;99.90;;;;;;5001491;28;20454;-72
2021/12/20 00:05:56;;;;;;;13.75;6.60;;;6.30;99.90;;;;;;4987205;28;20050;-72
2021/12/20 00:08:24;;;;;;;15.43;6.80;;;6.30;99.90;;;;;;4985808;28;20061;-72
2021/12/20 00:10:51;;;;;;;16.55;6.93;;;6.30;99.90;;;;;;5002287;28;20546;-72
2021/12/20 00:13:19;;;;;;;16.25;6.75;;;6.30;99.90;;;;;;4985627;28;20487;-72
2021/12/20 00:15:47;;;;;;;19.85;6.97;;;6.30;99.90;;;;;;4986396;28;20058;-73
2021/12/20 00:18:15;;;;;;;14.57;6.35;;;6.30;99.90;;;;;;5002042;28;20049;-72
2021/12/20 00:20:42;;;;;;;17.42;7.05;;;6.30;99.90;;;;;;4969298;28;20065;-73
2021/12/20 00:23:10;;;;;;;18.15;7.32;;;6.30;99.90;;;;;;4987152;28;20403;-73
2021/12/20 00:25:38;;;;;;;17.15;6.50;;;6.30;99.90;;;;;;4987309;28;20046;-73
2021/12/20 00:28:05;;;;;;;15.55;6.85;;;6.30;99.90;;;;;;5002080;28;20049;-73
2021/12/20 00:30:33;;;;;;;14.52;5.78;;;6.30;99.90;;;;;;4985607;28;20045;-72
2021/12/20 00:33:01;;;;;;;13.27;5.43;;;6.20;99.90;;;;;;4987210;28;20035;-72
2021/12/20 00:35:29;;;;;;;19.27;5.68;;;6.20;99.90;;;;;;4969697;28;20498;-72
2021/12/20 00:40:43;;;;;;;14.85;4.63;;;6.30;99.90;;;;;;4985042;28;20042;-72
2021/12/20 00:43:10;;;;;;;9.65;4.53;;;6.30;99.90;;;;;;4986702;28;20495;-72
2021/12/20 00:45:38;;;;;;;12.00;5.43;;;6.20;99.90;;;;;;5017942;28;20070;-73
2021/12/20 00:48:06;;;;;;;11.57;5.00;;;6.30;99.90;;;;;;4969390;28;20055;-73
2021/12/20 00:50:39;;;;;;;10.02;4.50;;;6.20;99.90;;;;;;4985895;28;20063;-73
2021/12/20 00:53:08;;;;;;;13.13;4.65;;;6.20;99.90;;;;;;4986417;28;20526;-73
2021/12/20 00:55:35;;;;;;;17.65;4.97;;;6.20;99.90;;;;;;4986825;28;20042;-72
2021/12/20 00:58:04;;;;;;;11.82;4.43;;;6.20;99.90;;;;;;4985370;28;20058;-73
2021/12/20 01:00:43;;;;;;;10.13;4.05;;;6.20;99.90;;;;;;4985288;28;20046;-73
2021/12/20 01:03:12;;;;;;;12.02;4.80;;;6.20;99.90;;;;;;5001407;28;20046;-73
2021/12/20 01:05:40;;;;;;;10.10;4.20;;;6.20;99.90;;;;;;4985115;28;20047;-73
2021/12/20 01:08:09;;;;;;;8.80;3.92;;;6.20;99.90;;;;;;5000996;28;20081;-73
2021/12/20 01:10:43;;;;;;;9.93;3.92;;;6.20;99.90;;;;;;5001523;28;20224;-73
2021/12/20 01:13:13;;;;;;;10.02;3.83;;;6.20;99.90;;;;;;4999201;28;20046;-73
2021/12/20 01:15:49;;;;;;;11.68;3.38;;;6.20;99.90;;;;;;4970771;28;20419;-73
2021/12/20 01:18:17;;;;;;;7.95;3.38;;;6.20;99.90;;;;;;4969799;28;20047;-73
2021/12/20 01:20:45;;;;;;;13.93;3.70;;;6.10;99.90;;;;;;4982843;28;20411;-73
2021/12/20 01:23:14;;;;;;;11.80;3.88;;;6.20;99.90;;;;;;4972902;28;20058;-73
2021/12/20 01:25:41;;;;;;;;;;;6.10;99.90;;;;;;4989298;28;20054;-72
2021/12/20 01:28:10;;;;;;;10.02;3.75;;;6.10;99.90;;;;;;4990233;28;19940;-72
2021/12/20 01:30:39;;;;;;;12.70;4.60;;;6.10;99.90;;;;;;4989929;28;20062;-72
2021/12/20 01:33:09;;;;;;;10.18;4.30;;;6.10;99.90;;;;;;4990212;28;20531;-73
2021/12/20 01:35:37;;;;;;;8.88;4.38;;;6.00;99.90;;;;;;5021510;28;20054;-72
2021/12/20 01:38:05;;;;;;;12.07;5.20;;;6.00;99.90;;;;;;4989941;28;20566;-73
2021/12/20 01:40:35;;;;;;;;;;;6.00;99.90;;;;;;4990406;28;20590;-74
2021/12/20 01:43:04;;;;;;;10.27;4.72;;;6.10;99.90;;;;;;5021047;28;20306;-72
2021/12/20 01:45:32;;;;;;;13.93;4.82;;;6.00;99.90;;;;;;4989751;28;20053;-72
2021/12/20 01:48:09;;;;;;;11.82;4.85;;;6.00;99.90;;;;;;4989952;28;20065;-72
2021/12/20 01:53:19;;;;;;;13.68;5.68;;;6.10;99.90;;;;;;4969677;28;20054;-72
2021/12/20 01:55:49;;;;;;;13.77;5.60;;;6.10;99.90;;;;;;4985136;28;20059;-72
2021/12/20 01:58:21;;;;;;;15.25;5.20;;;6.10;99.90;;;;;;4970125;28;20058;-72
2021/12/20 02:03:44;;;;;;;19.77;5.97;;;6.00;99.90;;;;;;4984652;28;20396;-73
2021/12/20 02:06:21;;;;;;;;;;;6.10;99.90;;;;;;4970708;28;20046;-73
2021/12/20 02:08:49;;;;;;;20.02;6.18;;;6.10;99.90;;;;;;4987101;28;19925;-71
2021/12/20 02:11:19;;;;;;;17.27;6.40;;;6.10;99.90;;;;;;4989615;28;20050;-73
2021/12/20 02:13:48;;;;;;;18.52;6.63;;;6.10;99.90;;;;;;4989170;28;20043;-72
2021/12/20 02:16:17;;;;;;;19.77;6.53;;;6.10;99.90;;;;;;4989380;28;20403;-73
2021/12/20 02:18:45;;;;;;;17.35;5.97;;;6.10;99.90;;;;;;4987916;28;20049;-73
2021/12/20 02:21:13;;;;;;;14.95;6.07;;;6.10;99.90;;;;;;5020741;28;20058;-72
2021/12/20 02:23:41;;;;;;;;;;;6.10;99.90;;;;;;4988717;28;20792;-73
2021/12/20 02:26:14;;;;;;;13.88;6.28;;;6.10;99.90;;;;;;4987034;28;19929;-73
2021/12/20 02:28:45;;;;;;;19.80;6.05;;;6.20;99.90;;;;;;4987230;28;20050;-72
2021/12/20 02:39:20;;;;;;;14.70;5.63;;;6.10;99.90;;;;;;4968400;28;20051;-73
2021/12/20 02:41:47;;;;;;;14.40;5.95;;;6.20;99.90;;;;;;4987186;28;20061;-72
2021/12/20 02:44:18;;;;;;;11.52;5.78;;;6.20;99.90;;;;;;4988640;28;20051;-72
2021/12/20 02:47:05;;;;;;;17.80;5.70;;;6.10;99.90;;;;;;4988767;28;20050;-72
2021/12/20 02:49:33;;;;;;;13.82;5.43;;;6.10;99.90;;;;;;4989106;28;20497;-73
2021/12/20 02:52:06;;;;;;;;;;;6.20;99.90;;;;;;4968812;28;20062;-72
2021/12/20 02:54:35;;;;;;;16.55;5.00;;;6.20;99.90;;;;;;4999935;28;20377;-73
2021/12/20 02:57:04;;;;;;;12.88;4.47;;;6.10;99.90;;;;;;4984225;28;20046;-73
2021/12/20 02:59:31;;;;;;;10.38;4.75;;;6.20;99.90;;;;;;4968152;28;20804;-73
2021/12/20 03:02:03;;;;;;;14.05;4.60;;;6.20;99.90;;;;;;4984369;28;20051;-72
2021/12/20 03:04:31;;;;;;;13.32;4.95;;;6.20;99.90;;;;;;4999694;28;20049;-73
2021/12/20 03:07:03;;;;;;;12.70;4.50;;;6.20;99.90;;;;;;4971806;28;20055;-72
2021/12/20 03:09:36;;;;;;;11.35;4.60;;;6.20;99.90;;;;;;4988598;28;20053;-72
2021/12/20 03:12:07;;;;;;;17.73;4.75;;;6.20;99.90;;;;;;4988857;28;20054;-73
2021/12/20 03:14:42;;;;;;;20.05;5.20;;;6.10;99.90;;;;;;4987318;28;20058;-73
2021/12/20 03:17:10;;;;;;;20.63;4.82;;;6.10;99.90;;;;;;4988869;28;20047;-72
2021/12/20 03:19:39;;;;;;;15.88;4.68;;;6.10;99.90;;;;;;4988655;28;20047;-73
2021/12/20 03:22:08;;;;;;;14.82;4.18;;;6.10;99.90;;;;;;4986954;28;20077;-73
2021/12/20 03:24:36;;;;;;;17.67;5.05;;;6.10;99.90;;;;;;4988635;28;20487;-74
2021/12/20 03:27:05;;;;;;;13.23;4.50;;;6.10;99.90;;;;;;4988373;28;20061;-72
2021/12/20 03:29:33;;;;;;;22.05;4.70;;;6.10;99.90;;;;;;4988057;28;20049;-73
2021/12/20 03:32:01;;;;;;;14.27;4.57;;;6.10;99.90;;;;;;5002228;28;20054;-73
2021/12/20 03:34:29;;;;;;;16.88;5.10;;;6.10;99.90;;;;;;4988553;28;20384;-72
2021/12/20 03:36:57;;;;;;;8.45;3.90;;;6.10;99.90;;;;;;5003037;28;20482;-74
2021/12/20 03:39:24;;;;;;;14.07;3.65;;;6.10;99.90;;;;;;4988305;28;20061;-72
2021/12/20 03:41:52;;;;;;;18.27;4.18;;;6.10;99.90;;;;;;4987142;28;20061;-71
2021/12/20 03:44:20;;;;;;;13.77;4.10;;;6.10;99.90;;;;;;4987562;28;20058;-71
2021/12/20 03:46:48;;;;;;;11.45;3.17;;;6.10;99.90;;;;;;4988261;28;20050;-71
2021/12/20 03:49:15;;;;;;;13.23;3.20;;;6.10;99.90;;;;;;4986710;28;20050;-72
2021/12/20 03:51:43;;;;;;;10.55;3.42;;;6.20;99.90;;;;;;4988128;28;20053;-71
2021/12/20 03:54:11;;;;;;;13.25;3.22;;;6.10;99.90;;;;;;4987923;28;20053;-72
2021/12/20 03:56:39;;;;;;;10.02;2.78;;;6.10;99.90;;;;;;4988049;28;20050;-72
2021/12/20 03:59:06;;;;;;;13.20;3.00;;;6.10;99.90;;;;;;4986132;28;20054;-71
2021/12/20 04:01:34;;;;;;;10.90;3.15;;;6.20;99.90;;;;;;4987445;28;20514;-73
2021/12/20 04:04:02;;;;;;;11.50;3.10;;;6.10;99.90;;;;;;5002587;28;20061;-74
2021/12/20 04:06:32;;;;;;;13.40;3.00;;;6.10;99.90;;;;;;4987842;28;20121;-73
2021/12/20 04:09:00;;;;;;;10.07;3.10;;;6.10;99.90;;;;;;4986131;28;20050;-72
2021/12/20 04:11:28;;;;;;;10.85;3.03;;;6.10;99.90;;;;;;4987932;28;20380;-72
2021/12/20 04:13:56;;;;;;;9.07;2.85;;;6.10;99.90;;;;;;4986288;28;20057;-72
2021/12/20 04:16:25;;;;;;;14.90;3.60;;;6.10;99.90;;;;;;4987402;28;20058;-73
2021/12/20 04:18:53;;;;;;;19.23;3.05;;;6.10;99.90;;;;;;5002518;28;20054;-72
2021/12/20 04:21:21;;;;;;;;;;;6.10;99.90;;;;;;5002574;28;20054;-72
2021/12/20 04:23:49;;;;;;;14.05;3.30;;;6.10;99.90;;;;;;4987991;28;19922;-73
2021/12/20 04:26:17;;;;;;;11.77;3.22;;;6.10;99.90;;;;;;5002028;28;20050;-73
2021/12/20 04:28:45;;;;;;;9.00;3.17;;;6.10;99.90;;;;;;4987394;28;20049;-72
2021/12/20 04:31:13;;;;;;;15.23;3.55;;;6.10;99.90;;;;;;4987372;28;20050;-73
2021/12/20 04:33:41;;;;;;;8.70;3.13;;;6.10;99.90;;;;;;4987333;28;20046;-73
2021/12/20 04:36:09;;;;;;;14.05;3.63;;;6.10;99.90;;;;;;4985713;28;20061;-73
2021/12/20 04:38:37;;;;;;;19.42;3.75;;;6.10;99.90;;;;;;4987448;28;20084;-73
2021/12/20 04:41:05;;;;;;;;;;;6.10;99.90;;;;;;4987904;28;20053;-72
2021/12/20 04:43:32;;;;;;;14.85;3.63;;;6.10;99.90;;;;;;4987107;28;19932;-72
2021/12/20 04:46:00;;;;;;;10.07;3.45;;;6.10;99.90;;;;;;4993634;28;20061;-73
2021/12/20 04:48:28;;;;;;;13.98;3.75;;;6.10;99.90;;;;;;5001726;28;20046;-72
2021/12/20 04:50:56;;;;;;;13.13;4.25;;;6.10;99.90;;;;;;4987254;28;20046;-73
2021/12/20 04:53:23;;;;;;;13.75;4.45;;;6.10;99.90;;;;;;4987197;28;20057;-72
2021/12/20 04:55:51;;;;;;;21.60;4.63;;;6.00;99.90;;;;;;5002268;28;20077;-72
2021/12/20 04:58:19;;;;;;;14.73;4.45;;;6.00;99.90;;;;;;5000886;28;20129;-72
2021/12/20 05:00:47;;;;;;;14.68;4.93;;;6.10;99.90;;;;;;4987309;28;20065;-73
2021/12/20 05:03:15;;;;;;;12.82;4.47;;;6.10;99.90;;;;;;4986064;28;20054;-73
2021/12/20 05:05:42;;;;;;;13.05;4.88;;;6.10;99.90;;;;;;4987372;28;20061;-73
2021/12/20 05:08:12;;;;;;;19.25;5.72;;;6.10;99.90;;;;;;4966394;28;20411;-73
2021/12/20 05:10:41;;;;;;;19.40;5.90;;;6.10;99.90;;;;;;4982591;28;20046;-73
2021/12/20 05:13:12;;;;;;;20.33;5.97;;;6.10;99.90;;;;;;4982468;28;20067;-72
2021/12/20 05:15:44;;;;;;;16.70;6.38;;;6.10;99.90;;;;;;4978800;28;20380;-72
2021/12/20 05:18:12;;;;;;;21.65;7.10;;;6.10;99.90;;;;;;5001140;28;20081;-72
2021/12/20 05:20:40;;;;;;;17.05;6.47;;;6.10;99.90;;;;;;4987334;28;20488;-73
2021/12/20 05:23:08;;;;;;;16.67;5.75;;;6.10;99.90;;;;;;4987105;28;20062;-72
2021/12/20 05:25:36;;;;;;;13.32;5.72;;;6.10;99.90;;;;;;4986425;28;20050;-72
2021/12/20 05:28:05;;;;;;;15.63;5.70;;;6.20;99.90;;;;;;4986784;28;20058;-73
2021/12/20 05:30:33;;;;;;;16.55;6.15;;;6.10;99.90;;;;;;4985881;28;20038;-73
2021/12/20 05:33:01;;;;;;;17.23;6.20;;;6.20;99.90;;;;;;4986435;28;20058;-73
2021/12/20 05:35:29;;;;;;;;;;;6.20;99.90;;;;;;4987200;28;20050;-73
2021/12/20 05:37:58;;;;;;;;;;;6.20;99.90;;;;;;4987519;28;19926;-73
2021/12/20 05:40:26;;;;;;;16.35;6.50;;;6.20;99.90;;;;;;4985499;28;19921;-73
2021/12/20 05:42:54;;;;;;;25.20;7.13;;;6.20;99.90;;;;;;4986521;28;20054;-73
2021/12/20 05:45:23;;;;;;;13.68;6.75;;;6.20;99.90;;;;;;4986591;28;20050;-72
2021/12/20 05:47:51;;;;;;;13.88;6.75;;;6.10;99.90;;;;;;4985113;28;20050;-73
2021/12/20 05:50:20;;;;;;;20.58;6.40;;;6.10;99.90;;;;;;4985461;28;20046;-73
2021/12/20 05:52:48;;;;;;;16.02;7.10;;;6.10;99.90;;;;;;4986223;28;20050;-73
2021/12/20 05:55:17;;;;;;;19.27;7.18;;;6.10;99.90;;;;;;5001172;28;20042;-72
2021/12/20 05:57:45;;;;;;;15.25;7.28;;;6.10;99.90;;;;;;4986271;28;20051;-73
2021/12/20 06:00:18;;;;;;;14.30;7.40;;;6.10;99.90;;;;;;4984349;28;20053;-73
2021/12/20 06:02:49;;;;;;;19.70;8.00;;;6.10;99.90;;;;;;4989438;28;20522;-73
2021/12/20 06:05:18;;;;;;;20.98;7.22;;;6.10;99.90;;;;;;4990061;28;20054;-73
2021/12/20 06:07:46;;;;;;;11.55;7.63;;;6.20;99.90;;;;;;4988114;28;20114;-73
2021/12/20 06:10:16;;;;;;;14.57;7.57;;;6.10;99.90;;;;;;5020648;28;20066;-73
2021/12/20 06:12:44;;;;;;;18.98;8.23;;;6.10;99.90;;;;;;4989158;28;20046;-73
2021/12/20 06:15:12;;;;;;;;;;;6.10;99.90;;;;;;4988080;28;20050;-73
2021/12/20 06:17:40;;;;;;;17.48;6.85;;;6.10;99.90;;;;;;5004216;28;20609;-73
2021/12/20 06:20:11;;;;;;;17.30;7.90;;;6.20;99.90;;;;;;4988770;28;20042;-73
2021/12/20 06:22:39;;;;;;;18.33;8.43;;;6.10;99.90;;;;;;4989124;28;20042;-73
2021/12/20 06:25:08;;;;;;;16.80;8.18;;;6.00;99.90;;;;;;4989422;28;20054;-73
2021/12/20 06:27:38;;;;;;;18.73;6.85;;;6.10;99.90;;;;;;4987450;28;20502;-73
2021/12/20 06:30:10;;;;;;;18.83;6.80;;;6.10;99.90;;;;;;4989468;28;20053;-72
2021/12/20 06:32:42;;;;;;;13.00;5.90;;;6.10;99.90;;;;;;4989196;28;20077;-72
2021/12/20 06:35:30;;;;;;;9.85;5.45;;;6.10;99.90;;;;;;4987922;28;20054;-72
2021/12/20 06:38:03;;;;;;;13.90;5.57;;;6.10;99.90;;;;;;4989115;28;20057;-72
2021/12/20 06:40:33;;;;;;;14.50;5.07;;;6.10;99.90;;;;;;4985179;28;20048;-73
2021/12/20 06:43:02;;;;;;;12.23;4.75;;;6.10;99.90;;;;;;4987881;28;20047;-73
2021/12/20 06:45:30;;;;;;;15.23;4.78;;;6.10;99.90;;;;;;5002079;28;20258;-73
2021/12/20 06:47:58;;;;;;;;;;;6.10;99.90;;;;;;4987210;28;20050;-73
2021/12/20 06:50:25;;;;;;;14.13;5.20;;;6.10;99.90;;;;;;4986866;28;19921;-73
2021/12/20 06:52:53;;;;;;;10.02;4.80;;;6.10;99.90;;;;;;4988814;28;20053;-73
2021/12/20 06:55:22;;;;;;;11.93;5.05;;;6.10;99.90;;;;;;5003733;28;20058;-72
2021/12/20 06:57:50;;;;;;;9.75;4.35;;;6.10;99.90;;;;;;4988748;28;20873;-72
2021/12/20 07:00:19;;;;;;;15.30;5.25;;;6.10;99.90;;;;;;4987567;28;20046;-73
2021/12/20 07:02:47;;;;;;;17.38;5.45;;;6.10;99.90;;;;;;4987256;28;20047;-73
2021/12/20 07:05:22;;;;;;;11.70;5.50;;;6.10;99.90;;;;;;4988170;28;20495;-72
2021/12/20 07:07:50;;;;;;;14.55;5.78;;;6.10;99.90;;;;;;4977413;28;20042;-71
2021/12/20 07:10:18;;;;;;;14.48;5.43;;;6.20;99.90;;;;;;4985329;28;20391;-71
2021/12/20 07:12:47;;;;;;;11.55;5.45;;;6.00;99.90;;;;;;4999690;28;20053;-74
2021/12/20 07:15:15;;;;;;;14.32;6.20;;;6.00;99.90;;;;;;4972717;28;20054;-72
2021/12/20 07:17:44;;;;;;;14.93;5.78;;;6.00;99.90;;;;;;4967644;28;20534;-74
2021/12/20 07:20:12;;;;;;;17.73;5.57;;;6.00;99.90;;;;;;4968777;28;20055;-72
2021/12/20 07:22:40;;;;;;;13.23;6.05;;;6.00;99.90;;;;;;4970601;28;20372;-72
2021/12/20 07:25:09;;;;;;;12.00;5.50;;;6.10;99.90;;;;;;4986945;28;20051;-72
2021/12/20 07:27:39;;;;;;;20.50;6.10;;;6.00;99.90;;;;;;4999148;28;20042;-72
2021/12/20 07:30:08;;;;;;;16.52;6.00;;;6.00;99.90;;;;;;4986402;28;20051;-73
2021/12/20 07:32:35;;;;;;;15.50;6.00;;;6.00;99.90;;;;;;4966225;28;20423;-72
2021/12/20 07:35:03;;;;;;;;;;;6.00;99.90;;;;;;4969072;28;20062;-72
2021/12/20 07:37:31;;;;;;;12.63;5.60;;;6.00;99.90;;;;;;5005326;28;19932;-72
2021/12/20 07:40:00;;;;;;;16.35;5.90;;;6.00;99.90;;;;;;4987792;28;20065;-71
2021/12/20 07:42:27;;;;;;;14.02;6.03;;;6.00;99.90;;;;;;5001478;28;20049;-72
2021/12/20 07:44:59;;;;;;;17.55;5.63;;;6.00;99.90;;;;;;4986917;28;20046;-72
2021/12/20 07:47:48;;;;;;;10.10;5.50;;;6.00;99.90;;;;;;4985386;28;20046;-72
2021/12/20 07:50:17;;;;;;;17.02;6.07;;;6.10;99.90;;;;;;4986711;28;20689;-73
2021/12/20 07:52:46;;;;;;;17.35;6.47;;;6.10;99.90;;;;;;4984306;28;20035;-73
2021/12/20 07:55:15;;;;;;;13.85;6.32;;;6.10;99.90;;;;;;4986717;28;20069;-73
2021/12/20 07:57:42;;;;;;;12.07;6.28;;;6.10;99.90;;;;;;4968630;28;20053;-73
2021/12/20 08:00:11;;;;;;;15.05;7.03;;;6.10;99.90;;;;;;4999415;28;20499;-73
2021/12/20 08:02:40;;;;;;;16.58;7.53;;;6.10;99.90;;;;;;4985256;28;20057;-71
2021/12/20 08:05:12;;;;;;;18.95;7.63;;;6.10;99.90;;;;;;4986387;28;20068;-73
2021/12/20 08:07:41;;;;;;;17.38;8.13;;;6.10;99.90;;;;;;4986058;28;20054;-73
2021/12/20 08:10:10;;;;;;;16.63;8.68;;;6.10;99.90;;;;;;5000529;28;20050;-72
2021/12/20 08:12:38;;;;;;;16.35;8.93;;;6.20;99.90;;;;;;5000968;28;20057;-72
2021/12/20 08:15:06;;;;;;;20.42;9.93;;;6.20;99.90;;;;;;4983725;28;20057;-72
2021/12/20 08:17:33;;;;;;;13.70;8.57;;;6.10;99.90;;;;;;4999880;28;20062;-71
2021/12/20 08:20:02;;;;;;;12.25;7.28;;;6.20;99.90;;;;;;4983777;28;20069;-72
2021/12/20 08:22:30;;;;;;;17.15;7.40;;;6.20;99.90;;;;;;4985116;28;20049;-72
2021/12/20 08:24:57;;;;;;;12.48;7.00;;;6.10;99.90;;;;;;5015874;28;20407;-72
2021/12/20 08:27:25;;;;;;;12.15;6.97;;;6.10;99.90;;;;;;4984926;28;20050;-72
2021/12/20 08:29:53;;;;;;;;;;;6.10;99.90;;;;;;4987065;28;20050;-72
2021/12/20 08:32:21;;;;;;;16.70;6.25;;;6.10;99.90;;;;;;4986724;28;19937;-72
2021/12/20 08:34:53;;;;;;;12.88;6.47;;;6.10;99.90;;;;;;4968501;28;20426;-73
2021/12/20 08:37:22;;;;;;;16.95;7.03;;;6.10;99.90;;;;;;4970961;28;20046;-72
2021/12/20 08:39:50;;;;;;;13.98;6.38;;;6.10;99.90;;;;;;4984288;28;20495;-73
2021/12/20 08:42:19;;;;;;;15.82;6.53;;;6.10;99.90;;;;;;4984392;28;20483;-73
2021/12/20 08:44:48;;;;;;;11.45;5.88;;;6.10;99.90;;;;;;4984620;28;20058;-72
2021/12/20 08:47:16;;;;;;;11.60;5.85;;;6.10;99.90;;;;;;4986805;28;20058;-71
2021/12/20 08:49:44;;;;;;;15.77;5.90;;;6.20;99.90;;;;;;4985122;28;20426;-71
2021/12/20 08:52:13;;;;;;;12.73;5.88;;;6.20;99.90;;;;;;5000808;28;20053;-71
2021/12/20 08:54:41;;;;;;;10.93;5.55;;;6.20;99.90;;;;;;4985019;28;20062;-72
2021/12/20 08:57:09;;;;;;;8.45;5.10;;;6.20;99.90;;;;;;5001599;28;20061;-72
2021/12/20 08:59:38;;;;;;;10.23;4.95;;;6.20;99.90;;;;;;4984867;28;20058;-72
2021/12/20 09:02:07;;;;;;;;;;;6.20;99.90;;;;;;4986840;28;20059;-72
2021/12/20 09:04:36;;;;;;;15.85;5.03;;;6.20;99.90;;;;;;4968557;28;19921;-72
2021/12/20 09:07:06;;;;;;;13.40;5.07;;;6.30;99.90;;;;;;4983093;28;20042;-72
2021/12/20 09:09:37;;;;;;;9.35;4.50;;;6.30;99.90;;;;;;4963746;28;20407;-72
2021/12/20 09:12:07;;;;;;;13.07;4.30;;;6.40;99.90;;;;;;4963092;28;20042;-72
2021/12/20 09:14:34;;;;;;;15.20;4.50;;;6.30;99.90;;;;;;4963559;28;20430;-72
2021/12/20 09:17:03;;;;;;;9.68;4.15;;;6.40;99.90;;;;;;4979882;28;20499;-72
2021/12/20 09:19:34;;;;;;;9.25;3.42;;;6.40;99.90;;;;;;4972893;28;20821;-72
2021/12/20 09:22:06;;;;;;;9.15;3.40;;;6.40;99.90;;;;;;4998983;28;20046;-72
2021/12/20 09:24:34;;;;;;;11.98;3.30;;;6.40;99.90;;;;;;4982273;28;20054;-72
2021/12/20 09:27:04;;;;;;;8.57;2.88;;;6.50;99.90;;;;;;4984213;28;20738;-74
2021/12/20 09:29:33;;;;;;;7.97;2.15;;;6.40;99.90;;;;;;4982484;28;20060;-71
2021/12/20 09:32:02;;;;;;;8.15;2.58;;;6.40;99.90;;;;;;4983623;28;20062;-72
2021/12/20 09:34:31;;;;;;;9.43;2.50;;;6.40;99.90;;;;;;4983253;28;20432;-72
2021/12/20 09:37:04;;;;;;;7.80;2.60;;;6.40;99.90;;;;;;5003217;28;20801;-72
2021/12/20 09:39:34;;;;;;;9.90;2.15;;;6.40;99.90;;;;;;4988401;28;20054;-72
2021/12/20 09:42:02;;;;;;;8.32;2.20;;;6.50;99.90;;;;;;5005215;28;20053;-72
2021/12/20 09:44:32;;;;;;;12.60;2.53;;;6.50;99.90;;;;;;4987791;28;20514;-71
2021/12/20 09:47:02;;;;;;;11.63;2.45;;;6.60;99.90;;;;;;4989242;28;20046;-72
2021/12/20 09:49:31;;;;;;;9.68;2.33;;;6.60;99.90;;;;;;4989821;28;20053;-72
2021/12/20 09:52:00;;;;;;;13.27;2.60;;;6.60;99.90;;;;;;5005005;28;20073;-72
2021/12/20 09:54:29;;;;;;;11.45;2.45;;;6.60;99.90;;;;;;5004201;28;20065;-72
2021/12/20 09:56:59;;;;;;;12.98;2.40;;;6.60;99.90;;;;;;5004799;28;20054;-72
2021/12/20 09:59:28;;;;;;;12.45;2.85;;;6.70;99.90;;;;;;4988356;28;20153;-72
2021/12/20 10:01:58;;;;;;;17.65;2.88;;;6.70;99.90;;;;;;5004298;28;20046;-72
2021/12/20 10:04:26;;;;;;;15.77;2.97;;;6.70;99.90;;;;;;4987967;28;20054;-73
2021/12/20 10:06:59;;;;;;;11.90;2.97;;;6.70;99.90;;;;;;4989636;28;20046;-72
2021/12/20 10:09:30;;;;;;;15.38;3.00;;;6.80;99.90;;;;;;5020626;28;20061;-71
2021/12/20 10:12:25;;;;;;;18.40;3.00;;;6.80;99.90;;;;;;5003271;28;20049;-73
2021/12/20 10:15:07;;;;;;;21.63;3.95;;;6.90;99.90;;;;;;4988450;28;20491;-72
2021/12/20 10:18:00;;;;;;;14.68;2.80;;;6.90;99.90;;;;;;4989476;28;20054;-72
2021/12/20 10:20:31;;;;;;;18.45;3.00;;;7.00;99.90;;;;;;4978750;28;20050;-72
2021/12/20 10:23:12;;;;;;;19.40;4.03;;;7.00;99.90;;;;;;4982687;28;20334;-73
2021/12/20 10:25:43;;;;;;;18.52;2.65;;;7.00;99.90;;;;;;4995572;28;20042;-73
2021/12/20 10:28:12;;;;;;;17.77;3.08;;;7.10;99.90;;;;;;5010514;28;20046;-72
2021/12/20 10:30:49;;;;;;;12.07;2.70;;;7.20;99.90;;;;;;4985336;28;20042;-72
2021/12/20 10:33:20;;;;;;;19.42;3.22;;;7.10;99.90;;;;;;4986357;28;20491;-72
2021/12/20 10:35:53;;;;;;;20.40;3.55;;;7.20;99.90;;;;;;4971032;28;20050;-72
2021/12/20 10:38:28;;;;;;;17.98;3.05;;;7.20;99.90;;;;;;4988049;28;20054;-72
2021/12/20 10:41:01;;;;;;;16.42;3.83;;;7.30;99.90;;;;;;4988854;28;20054;-72
2021/12/20 10:43:38;;;;;;;21.20;3.25;;;7.30;99.90;;;;;;4988015;28;20054;-71
2021/12/20 10:46:16;;;;;;;17.98;3.13;;;7.30;99.90;;;;;;4983289;28;20046;-72
2021/12/20 10:48:48;;;;;;;23.08;3.38;;;7.40;99.90;;;;;;4994736;28;20046;-71
2021/12/20 10:51:26;;;;;;;11.25;3.00;;;7.40;99.90;;;;;;5003779;28;20050;-72
2021/12/20 10:53:59;;;;;;;18.30;3.30;;;7.40;99.90;;;;;;4970048;28;20047;-72
2021/12/20 10:56:30;;;;;;;18.45;3.60;;;7.40;99.90;;;;;;5003394;28;20061;-71
2021/12/20 10:58:59;;;;;;;23.70;3.28;;;7.60;99.90;;;;;;4987383;28;20054;-72
2021/12/20 11:04:03;;;;;;;18.17;3.63;;;7.70;99.90;;;;;;4986770;28;20050;-72
2021/12/20 11:09:35;;;;;;;20.00;3.38;;;7.90;99.90;;;;;;5003042;28;20481;-72
2021/12/20 11:12:07;;;;;;;21.92;3.80;;;7.90;99.90;;;;;;5003331;28;20042;-72
2021/12/20 11:14:38;;;;;;;22.38;3.50;;;8.00;99.90;;;;;;5002671;28;20050;-72
2021/12/20 11:17:11;;;;;;;24.77;3.92;;;8.10;99.90;;;;;;5002059;28;20039;-72
2021/12/20 11:19:47;;;;;;;21.70;3.53;;;8.20;99.90;;;;;;4986064;28;20053;-72
2021/12/20 11:22:17;;;;;;;25.65;3.25;;;8.20;99.90;;;;;;4984404;28;20514;-71
2021/12/20 11:24:54;;;;;;;20.48;3.80;;;8.30;99.90;;;;;;4986015;28;20053;-72
2021/12/20 11:27:34;;;;;;;24.38;4.10;;;8.40;99.90;;;;;;4987313;28;20042;-72
2021/12/20 11:30:09;;;;;;;20.00;3.38;;;8.40;99.90;;;;;;4988678;28;20526;-72
2021/12/20 11:32:38;;;;;;;27.42;3.58;;;8.30;99.90;;;;;;4967944;28;20066;-72
2021/12/20 11:35:09;;;;;;;20.75;3.80;;;8.40;99.90;;;;;;4998699;28;20706;-72
2021/12/20 11:37:37;;;;;;;;;;;8.40;99.90;;;;;;4982882;28;20474;-71
2021/12/20 11:40:08;;;;;;;25.83;3.80;;;8.40;99.90;;;;;;4985812;28;19926;-72
2021/12/20 11:42:36;;;;;;;26.70;3.97;;;8.40;99.90;;;;;;4985765;28;20066;-72
2021/12/20 11:45:07;;;;;;;26.45;3.53;;;8.40;99.90;;;;;;4986818;28;20054;-71
2021/12/20 11:47:57;;;;;;;24.42;3.70;;;8.40;99.90;;;;;;4983714;28;20050;-72
2021/12/20 11:50:37;;;;;;;24.70;3.70;;;8.50;99.90;;;;;;4986696;28;20043;-71
2021/12/20 11:53:11;;;;;;;28.48;3.92;;;8.50;99.90;;;;;;4985365;28;20046;-71
2021/12/20 11:55:50;;;;;;;28.55;3.45;;;8.50;99.90;;;;;;5002046;28;20068;-71
2021/12/20 11:58:30;;;;;;;24.25;3.88;;;8.50;99.90;;;;;;4987228;28;20062;-73
2021/12/20 12:01:19;;;;;;;23.63;3.63;;;8.50;99.90;;;;;;4987085;28;20050;-71
2021/12/20 12:03:53;;;;;;;28.45;4.40;;;8.50;99.90;;;;;;5001769;28;20050;-71
2021/12/20 12:06:29;;;;;;;31.35;4.13;;;8.60;99.90;;;;;;4986718;28;20061;-72
2021/12/20 12:08:59;;;;;;;25.77;3.97;;;8.60;99.90;;;;;;4981791;28;20039;-72
2021/12/20 12:11:47;;;;;;;21.33;3.83;;;8.70;99.90;;;;;;4985476;28;20042;-72
2021/12/20 12:14:32;;;;;;;23.58;3.65;;;8.70;99.90;;;;;;4986449;28;20097;-72
2021/12/20 12:17:08;;;;;;;29.75;4.03;;;8.60;99.90;;;;;;4984454;28;20066;-72
2021/12/20 12:19:50;;;;;;;26.52;4.10;;;8.70;99.90;;;;;;4986925;28;20054;-72
2021/12/20 12:22:38;;;;;;;28.48;4.80;;;8.70;99.90;;;;;;5018818;28;20057;-72
2021/12/20 12:25:35;;;;;;;26.88;4.38;;;8.70;99.90;;;;;;5001598;28;20084;-72
2021/12/20 12:28:04;;;;;;;30.08;3.90;;;8.80;99.90;;;;;;5001839;28;20057;-72
2021/12/20 12:30:33;;;;;;;24.17;3.85;;;8.90;99.90;;;;;;5017958;28;20050;-72
2021/12/20 12:33:01;;;;;;;31.02;4.10;;;8.90;99.90;;;;;;4985069;28;20054;-72
2021/12/20 12:35:38;;;;;;;24.98;3.92;;;9.00;99.90;;;;;;4986754;28;20057;-72
2021/12/20 12:38:16;;;;;;;27.80;4.28;;;9.00;99.90;;;;;;4997634;28;20050;-73
2021/12/20 12:40:49;;;;;;;24.17;4.25;;;9.00;99.90;;;;;;4985318;28;20042;-72
2021/12/20 12:43:21;;;;;;;31.75;4.20;;;9.00;99.90;;;;;;4985540;28;20042;-72
2021/12/20 12:45:59;;;;;;;28.10;4.03;;;9.00;99.90;;;;;;4985489;28;20069;-72
2021/12/20 12:48:47;;;;;;;30.58;4.22;;;8.90;99.90;;;;;;4969399;28;20769;-73
2021/12/20 12:51:19;;;;;;;28.38;3.97;;;8.90;99.90;;;;;;4986534;28;20785;-72
2021/12/20 12:53:53;;;;;;;26.58;4.53;;;8.90;99.90;;;;;;4986668;28;20626;-72
2021/12/20 12:56:26;;;;;;;24.77;4.28;;;9.00;99.90;;;;;;4984241;28;20058;-72
2021/12/20 12:59:14;;;;;;;27.00;4.43;;;8.90;99.90;;;;;;4984393;28;20053;-73
2021/12/20 13:01:57;;;;;;;39.88;4.60;;;8.90;99.90;;;;;;4985980;28;20050;-72
2021/12/20 13:04:48;;;;;;;29.85;4.85;;;8.90;99.90;;;;;;4986445;28;20054;-73
2021/12/20 13:07:33;;;;;;;28.70;4.90;;;8.90;99.90;;;;;;4999507;28;20042;-72
2021/12/20 13:10:07;;;;;;;36.13;5.05;;;8.90;99.90;;;;;;4978045;28;20497;-73
2021/12/20 13:12:44;;;;;;;29.40;4.82;;;8.90;99.90;;;;;;4987634;28;20053;-73
2021/12/20 13:15:31;;;;;;;29.05;4.25;;;9.00;99.90;;;;;;4988402;28;20058;-73
2021/12/20 13:18:09;;;;;;;24.63;4.43;;;9.00;99.90;;;;;;4984057;28;20046;-73
2021/12/20 13:20:50;;;;;;;34.95;4.43;;;9.00;99.90;;;;;;4987901;28;20069;-73
2021/12/20 13:23:27;;;;;;;26.98;4.78;;;8.90;99.90;;;;;;4988502;28;20052;-73
2021/12/20 13:26:05;;;;;;;33.97;4.97;;;8.90;99.90;;;;;;4998865;28;20039;-72
2021/12/20 13:28:39;;;;;;;34.42;4.57;;;8.80;99.90;;;;;;5014608;28;20050;-73
2021/12/20 13:31:13;;;;;;;29.13;4.60;;;8.80;99.90;;;;;;4987120;28;20038;-72
2021/12/20 13:33:45;;;;;;;24.33;4.43;;;8.70;99.90;;;;;;4997197;28;20051;-73